createdAt,value
2022-10-19T00:01:08.506Z,8.15
2022-10-19T00:03:35.326Z,8.32
2022-10-19T00:06:10.467Z,8.73
2022-10-19T00:08:36.736Z,6.78
2022-10-19T00:11:03.031Z,6.28
2022-10-19T00:13:29.301Z,6.45
2022-10-19T00:15:55.565Z,5.80
2022-10-19T00:18:21.937Z,5.68
2022-10-19T00:20:48.325Z,5.80
2022-10-19T00:23:14.762Z,5.75
2022-10-19T00:25:41.037Z,5.43
2022-10-19T00:28:07.326Z,5.50
2022-10-19T00:30:36.420Z,4.93
2022-10-19T00:33:04.555Z,5.10
2022-10-19T00:35:30.818Z,5.05
2022-10-19T00:37:57.085Z,5.15
2022-10-19T00:40:23.355Z,4.90
2022-10-19T00:42:54.193Z,4.88
2022-10-19T00:45:20.467Z,5.40
2022-10-19T00:47:46.989Z,6.13
2022-10-19T00:50:14.535Z,6.57
2022-10-19T00:52:40.997Z,6.57
2022-10-19T00:55:07.879Z,6.15
2022-10-19T01:00:01.076Z,5.13
2022-10-19T01:02:27.391Z,5.35
2022-10-19T01:04:53.803Z,5.45
2022-10-19T01:07:20.308Z,5.28
2022-10-19T01:09:46.603Z,5.63
2022-10-19T01:12:31.386Z,5.10
2022-10-19T01:15:09.406Z,5.20
2022-10-19T01:17:54.408Z,4.65
2022-10-19T01:20:39.459Z,4.78
2022-10-19T01:23:25.989Z,4.50
2022-10-19T01:25:57.989Z,4.38
2022-10-19T01:28:36.438Z,4.50
2022-10-19T01:31:07.643Z,4.68
2022-10-19T01:33:40.033Z,4.57
2022-10-19T01:36:15.831Z,4.50
2022-10-19T01:38:50.788Z,4.87
2022-10-19T01:41:17.111Z,5.00
2022-10-19T01:43:48.225Z,4.32
2022-10-19T01:46:19.343Z,4.38
2022-10-19T01:48:48.350Z,4.50
2022-10-19T01:51:19.639Z,4.05
2022-10-19T01:53:47.618Z,4.10
2022-10-19T01:56:14.388Z,4.13
2022-10-19T01:58:42.985Z,4.00
2022-10-19T02:03:37.894Z,4.40
2022-10-19T02:06:05.985Z,3.55
2022-10-19T02:08:37.882Z,4.30
2022-10-19T02:11:04.292Z,3.95
2022-10-19T02:13:30.642Z,4.10
2022-10-19T02:15:58.518Z,4.10
2022-10-19T02:18:32.883Z,4.15
2022-10-19T02:21:00.511Z,4.20
2022-10-19T02:23:27.662Z,4.20
2022-10-19T02:25:54.401Z,4.15
2022-10-19T02:28:21.860Z,4.10
2022-10-19T02:33:17.486Z,3.90
2022-10-19T02:35:43.959Z,4.07
2022-10-19T02:38:11.322Z,3.88
2022-10-19T02:40:39.693Z,4.38
2022-10-19T02:43:09.548Z,4.25
2022-10-19T02:45:38.217Z,3.90
2022-10-19T02:48:09.979Z,4.25
2022-10-19T02:50:36.352Z,4.22
2022-10-19T02:53:02.773Z,4.25
2022-10-19T02:55:30.540Z,4.38
2022-10-19T02:57:57.300Z,4.63
2022-10-19T03:00:23.607Z,4.60
2022-10-19T03:02:51.030Z,4.50
2022-10-19T03:05:17.290Z,4.15
2022-10-19T03:07:43.606Z,4.20
2022-10-19T03:10:10.096Z,4.45
2022-10-19T03:12:36.489Z,4.68
2022-10-19T03:15:03.142Z,4.22
2022-10-19T03:17:29.401Z,4.07
2022-10-19T03:19:55.831Z,4.45
2022-10-19T03:22:22.175Z,4.43
2022-10-19T03:24:48.504Z,4.55
2022-10-19T03:27:14.821Z,4.32
2022-10-19T03:29:41.242Z,4.35
2022-10-19T03:32:07.685Z,4.65
2022-10-19T03:34:33.973Z,4.25
2022-10-19T03:37:00.298Z,4.28
2022-10-19T03:39:26.577Z,4.38
2022-10-19T03:41:52.854Z,4.57
2022-10-19T03:44:19.137Z,4.82
2022-10-19T03:46:45.418Z,4.43
2022-10-19T03:49:11.854Z,3.97
2022-10-19T03:51:38.169Z,4.47
2022-10-19T03:54:05.901Z,4.70
2022-10-19T03:56:33.662Z,4.30
2022-10-19T03:59:00.758Z,5.53
2022-10-19T04:01:28.471Z,4.28
2022-10-19T04:03:55.486Z,4.20
2022-10-19T04:08:48.971Z,4.20
2022-10-19T04:11:16.502Z,4.13
2022-10-19T04:13:42.769Z,3.97
2022-10-19T04:16:09.827Z,4.28
2022-10-19T04:18:36.151Z,3.95
2022-10-19T04:21:04.372Z,4.05
2022-10-19T04:23:32.287Z,3.88
2022-10-19T04:26:01.577Z,4.28
2022-10-19T04:28:27.956Z,4.20
2022-10-19T04:30:54.317Z,4.30
2022-10-19T04:33:20.577Z,4.30
2022-10-19T04:35:46.845Z,4.25
2022-10-19T04:38:13.170Z,4.75
2022-10-19T04:40:39.426Z,5.07
2022-10-19T04:43:05.702Z,5.20
2022-10-19T04:45:34.994Z,4.88
2022-10-19T04:48:01.862Z,5.35
2022-10-19T04:52:55.155Z,4.75
2022-10-19T04:55:21.596Z,5.13
2022-10-19T04:57:48.425Z,5.22
2022-10-19T05:02:44.727Z,6.00
2022-10-19T05:05:11.762Z,7.60
2022-10-19T05:07:38.057Z,6.47
2022-10-19T05:10:04.766Z,6.00
2022-10-19T05:12:31.075Z,6.30
2022-10-19T05:14:57.337Z,6.03
2022-10-19T05:17:23.655Z,6.05
2022-10-19T05:19:49.909Z,6.25
2022-10-19T05:22:16.194Z,6.40
2022-10-19T05:24:42.467Z,5.10
2022-10-19T05:27:08.738Z,4.80
2022-10-19T05:29:35.137Z,4.85
2022-10-19T05:32:01.416Z,5.20
2022-10-19T05:34:27.669Z,5.07
2022-10-19T05:36:54.879Z,4.70
2022-10-19T05:39:21.141Z,4.78
2022-10-19T05:41:47.750Z,4.95
2022-10-19T05:44:21.469Z,5.22
2022-10-19T05:46:48.845Z,4.82
2022-10-19T05:49:15.594Z,4.60
2022-10-19T05:51:41.906Z,5.07
2022-10-19T05:54:08.428Z,4.75
2022-10-19T05:56:34.738Z,5.70
2022-10-19T05:59:02.147Z,5.88
2022-10-19T06:01:29.252Z,5.93
2022-10-19T06:03:56.716Z,5.55
2022-10-19T06:06:23.759Z,5.35
2022-10-19T06:08:50.479Z,5.78
2022-10-19T06:11:18.785Z,5.28
2022-10-19T06:13:45.723Z,5.72
2022-10-19T06:18:38.572Z,5.78
2022-10-19T06:21:06.435Z,5.43
2022-10-19T06:23:33.633Z,5.65
2022-10-19T06:26:02.180Z,5.88
2022-10-19T06:28:28.535Z,5.78
2022-10-19T06:30:56.949Z,5.13
2022-10-19T06:33:23.226Z,5.03
2022-10-19T06:35:49.569Z,4.75
2022-10-19T06:38:16.076Z,5.22
2022-10-19T06:40:42.342Z,4.75
2022-10-19T06:43:08.638Z,4.75
2022-10-19T06:45:37.363Z,5.00
2022-10-19T06:48:07.470Z,4.82
2022-10-19T06:50:34.223Z,5.50
2022-10-19T06:53:00.662Z,5.97
2022-10-19T06:55:26.930Z,5.35
2022-10-19T06:57:53.195Z,5.05
2022-10-19T07:00:19.490Z,5.50
2022-10-19T07:02:45.772Z,5.60
2022-10-19T07:05:12.043Z,5.60
2022-10-19T07:07:38.496Z,5.28
2022-10-19T07:10:05.148Z,5.15
2022-10-19T07:12:31.462Z,5.07
2022-10-19T07:14:58.065Z,5.45
2022-10-19T07:17:24.337Z,4.43
2022-10-19T07:19:50.617Z,5.07
2022-10-19T07:22:21.238Z,4.45
2022-10-19T07:24:49.512Z,4.30
2022-10-19T07:27:15.914Z,4.97
2022-10-19T07:29:42.274Z,4.90
2022-10-19T07:32:08.529Z,4.95
2022-10-19T07:34:34.807Z,5.05
2022-10-19T07:37:01.237Z,4.60
2022-10-19T07:39:27.502Z,4.88
2022-10-19T07:41:53.780Z,4.50
2022-10-19T07:44:20.041Z,6.65
2022-10-19T07:46:46.314Z,5.57
2022-10-19T07:49:16.475Z,6.60
2022-10-19T07:51:42.797Z,5.75
2022-10-19T07:54:09.185Z,5.40
2022-10-19T07:56:35.995Z,5.25
2022-10-19T08:01:30.132Z,4.80
2022-10-19T08:06:43.183Z,4.70
2022-10-19T08:09:11.294Z,4.35
2022-10-19T08:11:42.224Z,4.40
2022-10-19T08:14:08.533Z,4.60
2022-10-19T08:16:37.349Z,4.45
2022-10-19T08:19:05.647Z,4.20
2022-10-19T08:21:31.904Z,3.92
2022-10-19T08:23:58.650Z,4.53
2022-10-19T08:28:51.217Z,4.00
2022-10-19T08:31:19.626Z,3.90
2022-10-19T08:33:46.095Z,4.03
2022-10-19T08:36:13.454Z,3.88
2022-10-19T08:38:40.146Z,3.83
2022-10-19T08:43:36.550Z,3.90
2022-10-19T08:46:23.075Z,3.47
2022-10-19T08:48:49.503Z,3.80
2022-10-19T08:51:15.779Z,3.17
2022-10-19T08:54:02.375Z,3.70
2022-10-19T08:56:51.139Z,3.40
2022-10-19T08:59:34.529Z,3.10
2022-10-19T09:02:00.787Z,3.75
2022-10-19T09:04:32.617Z,3.40
2022-10-19T09:07:11.072Z,3.35
2022-10-19T09:12:19.310Z,3.60
2022-10-19T09:14:54.650Z,3.40
2022-10-19T09:17:21.004Z,3.40
2022-10-19T09:19:47.367Z,3.58
2022-10-19T09:22:21.712Z,3.28
2022-10-19T09:25:26.323Z,3.42
2022-10-19T09:28:03.236Z,3.20
2022-10-19T09:30:30.090Z,3.22
2022-10-19T09:33:00.652Z,3.33
2022-10-19T09:35:41.358Z,3.50
2022-10-19T09:38:07.802Z,3.60
2022-10-19T09:40:34.485Z,3.08
2022-10-19T09:45:41.503Z,2.95
2022-10-19T09:48:28.767Z,2.85
2022-10-19T09:50:59.042Z,2.50
2022-10-19T09:53:26.651Z,2.70
2022-10-19T09:56:00.377Z,2.13
2022-10-19T09:58:30.531Z,2.20
2022-10-19T10:00:59.848Z,1.80
2022-10-19T10:03:27.712Z,2.10
2022-10-19T10:05:55.678Z,2.08
2022-10-19T10:08:23.796Z,1.60
2022-10-19T10:10:59.266Z,1.52
2022-10-19T10:13:27.491Z,1.37
2022-10-19T10:15:58.968Z,1.60
2022-10-19T10:18:25.967Z,1.95
2022-10-19T10:25:55.690Z,1.10
2022-10-19T10:28:23.272Z,1.17
2022-10-19T10:30:52.895Z,0.90
2022-10-19T10:33:40.360Z,1.08
2022-10-19T10:36:11.202Z,1.20
2022-10-19T10:41:07.615Z,1.20
2022-10-19T10:43:36.538Z,1.20
2022-10-19T10:46:07.519Z,1.17
2022-10-19T10:48:40.990Z,1.25
2022-10-19T10:51:10.120Z,0.95
2022-10-19T10:53:40.984Z,1.30
2022-10-19T10:56:20.999Z,1.20
2022-10-19T10:58:49.815Z,1.10
2022-10-19T11:01:19.155Z,1.25
2022-10-19T11:03:50.598Z,1.20
2022-10-19T11:06:17.162Z,1.25
2022-10-19T11:11:14.015Z,1.55
2022-10-19T11:13:43.427Z,1.52
2022-10-19T11:16:14.803Z,1.42
2022-10-19T11:18:43.321Z,1.48
2022-10-19T11:21:11.426Z,1.52
2022-10-19T11:23:56.567Z,1.08
2022-10-19T11:26:35.106Z,1.10
2022-10-19T11:29:20.279Z,1.20
2022-10-19T11:31:52.802Z,1.63
2022-10-19T11:34:37.967Z,1.58
2022-10-19T11:37:16.406Z,1.13
2022-10-19T11:39:47.933Z,1.25
2022-10-19T11:42:42.275Z,1.23
2022-10-19T11:45:15.729Z,1.48
2022-10-19T11:47:52.029Z,1.30
2022-10-19T11:52:50.647Z,1.30
2022-10-19T11:55:27.007Z,1.35
2022-10-19T12:03:31.629Z,1.70
2022-10-19T12:06:09.258Z,1.35
2022-10-19T12:08:41.855Z,1.63
2022-10-19T12:11:24.262Z,1.40
2022-10-19T12:13:52.593Z,1.65
2022-10-19T12:16:19.879Z,1.67
2022-10-19T12:18:47.591Z,1.70
2022-10-19T12:21:23.198Z,1.40
2022-10-19T12:23:50.105Z,1.40
2022-10-19T12:28:50.479Z,1.60
2022-10-19T12:31:17.430Z,1.50
2022-10-19T12:34:02.152Z,1.55
2022-10-19T12:36:52.436Z,1.30
2022-10-19T12:39:34.980Z,1.42
2022-10-19T12:42:27.544Z,1.42
2022-10-19T12:45:07.173Z,1.30
2022-10-19T12:47:33.940Z,1.50
2022-10-19T12:50:00.754Z,1.58
2022-10-19T12:52:44.894Z,1.50
2022-10-19T12:55:34.666Z,1.30
2022-10-19T12:58:03.660Z,2.05
2022-10-19T13:00:36.641Z,1.52
2022-10-19T13:03:17.734Z,1.58
2022-10-19T13:05:55.138Z,1.45
2022-10-19T13:08:28.075Z,1.40
2022-10-19T13:11:04.762Z,1.85
2022-10-19T13:13:50.966Z,1.55
2022-10-19T13:16:29.602Z,1.70
2022-10-19T13:18:58.955Z,1.55
2022-10-19T13:21:48.102Z,1.35
2022-10-19T13:24:26.242Z,1.35
2022-10-19T13:27:04.536Z,1.50
2022-10-19T13:29:39.780Z,1.45
2022-10-19T13:32:24.549Z,1.42
2022-10-19T13:34:50.859Z,1.27
2022-10-19T13:37:18.407Z,1.17
2022-10-19T13:39:44.691Z,1.60
2022-10-19T13:42:27.158Z,1.60
2022-10-19T13:44:53.626Z,1.25
2022-10-19T13:47:23.112Z,1.27
2022-10-19T13:50:01.399Z,1.33
2022-10-19T13:52:36.819Z,1.30
2022-10-19T13:55:18.479Z,1.30
2022-10-19T13:57:50.105Z,1.30
2022-10-19T14:00:19.890Z,1.67
2022-10-19T14:03:06.724Z,1.10
2022-10-19T14:08:28.661Z,1.75
2022-10-19T14:11:18.929Z,1.17
2022-10-19T14:13:45.651Z,1.30
2022-10-19T14:16:21.627Z,1.38
2022-10-19T14:21:14.082Z,1.20
2022-10-19T14:23:40.422Z,1.10
2022-10-19T14:28:33.510Z,1.30
2022-10-19T14:31:00.943Z,1.30
2022-10-19T14:33:28.887Z,1.40
2022-10-19T14:35:55.456Z,1.40
2022-10-19T14:38:25.972Z,1.27
2022-10-19T14:40:52.288Z,1.00
2022-10-19T14:43:18.536Z,1.30
2022-10-19T14:45:44.848Z,0.90
2022-10-19T14:48:16.843Z,1.25
2022-10-19T14:50:46.825Z,1.45
2022-10-19T14:53:16.169Z,1.30
2022-10-19T14:55:42.774Z,1.00
2022-10-19T14:58:15.517Z,1.23
2022-10-19T15:00:42.348Z,1.20
2022-10-19T15:03:11.577Z,1.30
2022-10-19T15:05:41.632Z,1.40
2022-10-19T15:08:17.032Z,1.10
2022-10-19T15:10:47.237Z,1.57
2022-10-19T15:13:19.499Z,1.20
2022-10-19T15:15:50.079Z,1.15
2022-10-19T15:18:43.487Z,1.20
2022-10-19T15:21:12.639Z,1.30
2022-10-19T15:23:43.745Z,1.88
2022-10-19T15:26:17.370Z,1.20
2022-10-19T15:28:44.482Z,1.15
2022-10-19T15:31:15.520Z,1.80
2022-10-19T15:33:49.519Z,1.80
2022-10-19T15:36:19.833Z,1.27
2022-10-19T15:38:47.174Z,2.00
2022-10-19T15:41:20.858Z,1.50
2022-10-19T15:43:48.372Z,1.42
2022-10-19T15:46:23.756Z,1.33
2022-10-19T15:48:55.462Z,1.60
2022-10-19T15:51:24.751Z,1.25
2022-10-19T15:53:58.383Z,2.10
2022-10-19T15:56:25.747Z,1.60
2022-10-19T15:58:53.135Z,1.80
2022-10-19T16:01:20.739Z,1.88
2022-10-19T16:03:47.153Z,1.98
2022-10-19T16:06:13.514Z,2.00
2022-10-19T16:08:39.804Z,1.73
2022-10-19T16:11:08.850Z,1.90
2022-10-19T16:13:35.121Z,1.73
2022-10-19T16:16:10.577Z,2.00
2022-10-19T16:18:37.755Z,2.00
2022-10-19T16:23:32.612Z,2.15
2022-10-19T16:26:00.432Z,2.40
2022-10-19T16:28:26.713Z,2.25
2022-10-19T16:30:53.899Z,3.15
2022-10-19T16:33:20.254Z,2.80
2022-10-19T16:35:46.527Z,2.72
2022-10-19T16:38:12.878Z,2.25
2022-10-19T16:40:39.182Z,3.08
2022-10-19T16:43:05.631Z,2.80
2022-10-19T16:45:31.983Z,3.40
2022-10-19T16:47:58.345Z,3.40
2022-10-19T16:50:24.703Z,3.90
2022-10-19T16:53:10.056Z,3.53
2022-10-19T16:55:37.038Z,3.73
2022-10-19T16:58:03.475Z,3.55
2022-10-19T17:00:29.908Z,3.80
2022-10-19T17:02:56.228Z,3.40
2022-10-19T17:05:22.505Z,3.00
2022-10-19T17:07:48.763Z,3.80
2022-10-19T17:10:16.381Z,3.17
2022-10-19T17:12:42.991Z,3.60
2022-10-19T17:17:57.874Z,4.28
2022-10-19T17:20:24.130Z,3.95
2022-10-19T17:22:51.954Z,4.20
2022-10-19T17:25:18.230Z,3.92
2022-10-19T17:27:44.530Z,4.28
2022-10-19T17:30:10.896Z,4.30
2022-10-19T17:32:39.690Z,4.50
2022-10-19T17:35:06.407Z,4.80
2022-10-19T17:42:25.747Z,4.68
2022-10-19T17:47:18.390Z,4.97
2022-10-19T17:49:44.683Z,4.32
2022-10-19T17:52:10.934Z,4.60
2022-10-19T17:54:48.553Z,4.82
2022-10-19T17:57:23.985Z,4.85
2022-10-19T17:59:53.013Z,4.70
2022-10-19T18:02:19.575Z,4.82
2022-10-19T18:04:46.009Z,4.60
2022-10-19T18:07:12.261Z,4.93
2022-10-19T18:09:38.555Z,5.03
2022-10-19T18:12:07.563Z,4.70
2022-10-19T18:14:33.985Z,4.35
2022-10-19T18:17:00.263Z,4.75
2022-10-19T18:19:26.534Z,4.20
2022-10-19T18:21:53.322Z,4.78
2022-10-19T18:26:48.587Z,4.25
2022-10-19T18:29:16.261Z,4.25
2022-10-19T18:31:42.693Z,4.20
2022-10-19T18:34:12.521Z,3.60
2022-10-19T18:36:38.819Z,3.97
2022-10-19T18:39:05.523Z,4.15
2022-10-19T18:43:59.458Z,3.60
2022-10-19T18:46:26.090Z,3.45
2022-10-19T18:51:19.113Z,3.60
2022-10-19T18:56:12.651Z,3.58
2022-10-19T18:58:39.136Z,3.47
2022-10-19T19:01:06.563Z,3.55
2022-10-19T19:03:33.332Z,4.30
2022-10-19T19:06:07.321Z,4.72
2022-10-19T19:08:33.859Z,4.03
2022-10-19T19:11:11.227Z,4.38
2022-10-19T19:13:37.802Z,4.10
2022-10-19T19:16:04.567Z,3.60
2022-10-19T19:18:33.619Z,4.20
2022-10-19T19:21:00.613Z,3.95
2022-10-19T19:23:26.930Z,4.22
2022-10-19T19:25:53.793Z,4.30
2022-10-19T19:28:20.071Z,3.65
2022-10-19T19:30:46.726Z,4.22
2022-10-19T19:35:43.027Z,3.65
2022-10-19T19:38:09.719Z,3.53
2022-10-19T19:43:02.227Z,3.38
2022-10-19T19:45:28.498Z,4.47
2022-10-19T19:47:54.741Z,3.80
2022-10-19T19:50:21.017Z,4.10
2022-10-19T19:52:48.483Z,3.78
2022-10-19T19:55:14.922Z,4.47
2022-10-19T19:57:42.673Z,3.92
2022-10-19T20:00:09.743Z,4.72
2022-10-19T20:02:39.235Z,4.57
2022-10-19T20:05:05.598Z,4.20
2022-10-19T20:07:31.888Z,4.10
2022-10-19T20:09:58.200Z,4.35
2022-10-19T20:12:24.489Z,4.30
2022-10-19T20:14:50.839Z,4.18
2022-10-19T20:17:17.131Z,3.90
2022-10-19T20:19:43.464Z,3.88
2022-10-19T20:22:09.874Z,3.83
2022-10-19T20:24:37.695Z,4.13
2022-10-19T20:27:04.168Z,4.68
2022-10-19T20:29:30.483Z,4.50
2022-10-19T20:31:56.878Z,5.03
2022-10-19T20:34:24.033Z,4.45
2022-10-19T20:36:50.442Z,4.20
2022-10-19T20:39:17.583Z,4.22
2022-10-19T20:41:43.842Z,4.38
2022-10-19T20:44:10.103Z,4.35
2022-10-19T20:46:36.932Z,4.30
2022-10-19T20:49:03.500Z,4.32
2022-10-19T20:51:32.434Z,4.00
2022-10-19T20:53:59.795Z,4.25
2022-10-19T20:56:27.395Z,4.38
2022-10-19T20:58:55.368Z,4.20
2022-10-19T21:01:22.051Z,4.35
2022-10-19T21:06:15.269Z,4.13
2022-10-19T21:08:41.634Z,4.18
2022-10-19T21:11:12.117Z,4.10
2022-10-19T21:13:38.409Z,4.03
2022-10-19T21:16:12.159Z,4.70
2022-10-19T21:18:38.533Z,4.45
2022-10-19T21:21:21.826Z,4.53
2022-10-19T21:23:49.462Z,4.25
2022-10-19T21:26:16.213Z,4.18
2022-10-19T21:31:09.426Z,4.03
2022-10-19T21:33:35.888Z,4.97
2022-10-19T21:36:03.094Z,4.85
2022-10-19T21:38:29.586Z,5.18
2022-10-19T21:40:59.580Z,5.50
2022-10-19T21:43:25.914Z,5.03
2022-10-19T21:45:52.234Z,4.57
2022-10-19T21:48:18.752Z,4.45
2022-10-19T21:50:45.052Z,4.00
2022-10-19T21:53:11.335Z,4.78
2022-10-19T21:55:37.666Z,4.50
2022-10-19T21:58:04.638Z,4.88
2022-10-19T22:00:30.989Z,4.07
2022-10-19T22:02:57.252Z,4.53
2022-10-19T22:05:23.553Z,4.63
2022-10-19T22:07:49.811Z,4.53
2022-10-19T22:10:16.081Z,4.50
2022-10-19T22:12:42.358Z,4.50
2022-10-19T22:15:08.874Z,5.10
2022-10-19T22:17:35.172Z,4.93
2022-10-19T22:20:01.436Z,5.35
2022-10-19T22:22:27.723Z,5.43
2022-10-19T22:24:53.991Z,4.30
2022-10-19T22:27:20.249Z,4.30
2022-10-19T22:29:46.727Z,4.03
2022-10-19T22:32:13.005Z,5.35
2022-10-19T22:34:39.288Z,4.50
2022-10-19T22:37:05.686Z,4.55
2022-10-19T22:39:32.017Z,4.45
2022-10-19T22:42:04.303Z,4.20
2022-10-19T22:44:30.833Z,4.40
2022-10-19T22:46:57.722Z,4.80
2022-10-19T22:51:50.300Z,4.25
2022-10-19T22:54:16.699Z,4.97
2022-10-19T22:56:43.215Z,4.47
2022-10-19T22:59:09.654Z,4.68
2022-10-19T23:01:36.061Z,4.50
2022-10-19T23:04:02.537Z,4.85
2022-10-19T23:06:28.834Z,4.85
2022-10-19T23:08:55.387Z,4.53
2022-10-19T23:11:22.355Z,4.40
2022-10-19T23:13:48.660Z,5.00
2022-10-19T23:16:14.986Z,5.57
2022-10-19T23:18:41.374Z,5.15
2022-10-19T23:21:08.907Z,4.65
2022-10-19T23:23:35.385Z,5.10
2022-10-19T23:26:03.539Z,5.28
2022-10-19T23:28:30.522Z,4.75
2022-10-19T23:30:58.504Z,5.25
2022-10-19T23:33:25.637Z,5.38
2022-10-19T23:35:51.966Z,4.80
2022-10-19T23:38:18.298Z,5.22
2022-10-19T23:40:44.786Z,5.15
2022-10-19T23:43:11.491Z,5.18
2022-10-19T23:45:39.063Z,4.80
2022-10-19T23:48:05.371Z,5.50
2022-10-19T23:50:31.651Z,5.50
2022-10-19T23:52:57.927Z,5.32
2022-10-19T23:55:24.187Z,5.53
2022-10-19T23:57:50.450Z,5.22
